sensor_id;sensor_type;location;lat;lon;timestamp;pressure;altitude;pressure_sealevel;temperature;humidity
58662;BME280;44432;49.786;22.760;2024-02-26T00:00:42;98608.52;;;8.69;83.62
58662;BME280;44432;49.786;22.760;2024-02-26T00:03:36;98605.17;;;8.68;83.65
58662;BME280;44432;49.786;22.760;2024-02-26T00:06:07;98601.09;;;8.68;83.55
58662;BME280;44432;49.786;22.760;2024-02-26T00:08:37;98596.91;;;8.68;83.66
58662;BME280;44432;49.786;22.760;2024-02-26T00:11:08;98593.80;;;8.67;83.75
58662;BME280;44432;49.786;22.760;2024-02-26T00:13:39;98588.19;;;8.66;83.76
58662;BME280;44432;49.786;22.760;2024-02-26T00:16:10;98584.72;;;8.65;84.01
58662;BME280;44432;49.786;22.760;2024-02-26T00:18:40;98583.91;;;8.64;84.09
58662;BME280;44432;49.786;22.760;2024-02-26T00:21:11;98580.35;;;8.65;84.23
58662;BME280;44432;49.786;22.760;2024-02-26T00:23:42;98579.13;;;8.65;84.14
58662;BME280;44432;49.786;22.760;2024-02-26T00:26:13;98580.83;;;8.65;84.26
58662;BME280;44432;49.786;22.760;2024-02-26T00:28:44;98579.02;;;8.64;84.44
58662;BME280;44432;49.786;22.760;2024-02-26T00:31:15;98577.99;;;8.65;84.55
58662;BME280;44432;49.786;22.760;2024-02-26T00:33:46;98576.09;;;8.65;84.45
58662;BME280;44432;49.786;22.760;2024-02-26T00:36:17;98583.18;;;8.64;84.35
58662;BME280;44432;49.786;22.760;2024-02-26T00:38:48;98578.04;;;8.65;84.52
58662;BME280;44432;49.786;22.760;2024-02-26T00:41:21;98581.13;;;8.64;84.54
58662;BME280;44432;49.786;22.760;2024-02-26T00:43:52;98583.46;;;8.65;84.45
58662;BME280;44432;49.786;22.760;2024-02-26T00:46:23;98582.13;;;8.64;84.66
58662;BME280;44432;49.786;22.760;2024-02-26T00:48:54;98586.50;;;8.65;84.25
58662;BME280;44432;49.786;22.760;2024-02-26T00:51:25;98596.02;;;8.64;84.30
58662;BME280;44432;49.786;22.760;2024-02-26T00:53:56;98594.98;;;8.63;84.13
58662;BME280;44432;49.786;22.760;2024-02-26T00:56:26;98590.86;;;8.63;84.07
58662;BME280;44432;49.786;22.760;2024-02-26T00:58:58;98590.65;;;8.63;84.18
58662;BME280;44432;49.786;22.760;2024-02-26T01:01:29;98589.61;;;8.61;84.00
58662;BME280;44432;49.786;22.760;2024-02-26T01:03:59;98584.98;;;8.58;83.65
58662;BME280;44432;49.786;22.760;2024-02-26T01:06:30;98584.38;;;8.54;83.88
58662;BME280;44432;49.786;22.760;2024-02-26T01:09:01;98582.51;;;8.49;83.86
58662;BME280;44432;49.786;22.760;2024-02-26T01:11:32;98580.54;;;8.48;83.83
58662;BME280;44432;49.786;22.760;2024-02-26T01:14:03;98571.83;;;8.46;83.93
58662;BME280;44432;49.786;22.760;2024-02-26T01:16:34;98568.66;;;8.44;83.91
58662;BME280;44432;49.786;22.760;2024-02-26T01:19:04;98575.27;;;8.43;84.24
58662;BME280;44432;49.786;22.760;2024-02-26T01:21:35;98575.29;;;8.42;84.19
58662;BME280;44432;49.786;22.760;2024-02-26T01:24:06;98576.83;;;8.38;83.92
58662;BME280;44432;49.786;22.760;2024-02-26T01:26:37;98579.90;;;8.32;84.26
58662;BME280;44432;49.786;22.760;2024-02-26T01:29:08;98584.00;;;8.25;84.26
58662;BME280;44432;49.786;22.760;2024-02-26T01:31:39;98591.94;;;8.19;84.49
58662;BME280;44432;49.786;22.760;2024-02-26T01:34:09;98595.55;;;8.18;84.41
58662;BME280;44432;49.786;22.760;2024-02-26T01:36:40;98595.15;;;8.17;85.08
58662;BME280;44432;49.786;22.760;2024-02-26T01:39:11;98595.27;;;8.18;84.99
58662;BME280;44432;49.786;22.760;2024-02-26T01:41:42;98596.98;;;8.22;84.93
58662;BME280;44432;49.786;22.760;2024-02-26T01:44:13;98601.58;;;8.24;85.20
58662;BME280;44432;49.786;22.760;2024-02-26T01:46:44;98604.83;;;8.25;85.34
58662;BME280;44432;49.786;22.760;2024-02-26T01:49:16;98608.94;;;8.29;85.25
58662;BME280;44432;49.786;22.760;2024-02-26T01:51:47;98611.48;;;8.30;85.35
58662;BME280;44432;49.786;22.760;2024-02-26T01:54:18;98602.18;;;8.32;85.57
58662;BME280;44432;49.786;22.760;2024-02-26T01:56:50;98597.29;;;8.33;85.32
58662;BME280;44432;49.786;22.760;2024-02-26T01:59:21;98596.96;;;8.34;85.26
58662;BME280;44432;49.786;22.760;2024-02-26T02:01:55;98592.46;;;8.36;85.56
58662;BME280;44432;49.786;22.760;2024-02-26T02:04:28;98587.34;;;8.37;85.62
58662;BME280;44432;49.786;22.760;2024-02-26T02:06:59;98582.03;;;8.39;85.46
58662;BME280;44432;49.786;22.760;2024-02-26T02:09:31;98579.87;;;8.41;85.52
58662;BME280;44432;49.786;22.760;2024-02-26T02:12:02;98570.80;;;8.42;85.64
58662;BME280;44432;49.786;22.760;2024-02-26T02:14:33;98572.90;;;8.42;85.24
58662;BME280;44432;49.786;22.760;2024-02-26T02:17:04;98572.00;;;8.38;85.17
58662;BME280;44432;49.786;22.760;2024-02-26T02:19:35;98572.57;;;8.33;84.84
58662;BME280;44432;49.786;22.760;2024-02-26T02:22:06;98570.44;;;8.26;85.16
58662;BME280;44432;49.786;22.760;2024-02-26T02:24:37;98567.08;;;8.21;85.23
58662;BME280;44432;49.786;22.760;2024-02-26T02:27:08;98569.74;;;8.17;85.45
58662;BME280;44432;49.786;22.760;2024-02-26T02:29:39;98579.30;;;8.11;85.31
58662;BME280;44432;49.786;22.760;2024-02-26T02:32:10;98589.63;;;8.09;85.47
58662;BME280;44432;49.786;22.760;2024-02-26T02:34:41;98591.78;;;8.07;85.96
58662;BME280;44432;49.786;22.760;2024-02-26T02:37:12;98590.48;;;8.08;86.07
58662;BME280;44432;49.786;22.760;2024-02-26T02:39:43;98599.41;;;8.07;85.98
58662;BME280;44432;49.786;22.760;2024-02-26T02:42:14;98604.02;;;8.07;86.12
58662;BME280;44432;49.786;22.760;2024-02-26T02:44:45;98605.98;;;8.07;86.06
58662;BME280;44432;49.786;22.760;2024-02-26T02:47:16;98614.09;;;8.09;86.46
58662;BME280;44432;49.786;22.760;2024-02-26T02:49:47;98614.40;;;8.11;86.48
58662;BME280;44432;49.786;22.760;2024-02-26T02:52:17;98618.07;;;8.13;86.39
58662;BME280;44432;49.786;22.760;2024-02-26T02:54:48;98615.23;;;8.13;86.22
58662;BME280;44432;49.786;22.760;2024-02-26T02:57:19;98618.60;;;8.12;86.26
58662;BME280;44432;49.786;22.760;2024-02-26T02:59:50;98617.70;;;8.13;86.49
58662;BME280;44432;49.786;22.760;2024-02-26T03:02:21;98624.58;;;8.14;86.66
58662;BME280;44432;49.786;22.760;2024-02-26T03:04:52;98623.46;;;8.16;86.71
58662;BME280;44432;49.786;22.760;2024-02-26T03:07:23;98627.50;;;8.16;86.96
58662;BME280;44432;49.786;22.760;2024-02-26T03:09:54;98613.59;;;8.16;86.80
58662;BME280;44432;49.786;22.760;2024-02-26T03:12:25;98600.45;;;8.16;86.90
58662;BME280;44432;49.786;22.760;2024-02-26T03:14:57;98593.08;;;8.16;86.94
58662;BME280;44432;49.786;22.760;2024-02-26T03:17:28;98596.30;;;8.15;86.92
58662;BME280;44432;49.786;22.760;2024-02-26T03:19:59;98598.21;;;8.12;86.87
58662;BME280;44432;49.786;22.760;2024-02-26T03:22:30;98590.11;;;8.08;86.92
58662;BME280;44432;49.786;22.760;2024-02-26T03:25:01;98591.13;;;8.02;86.42
58662;BME280;44432;49.786;22.760;2024-02-26T03:27:31;98589.37;;;7.92;86.36
58662;BME280;44432;49.786;22.760;2024-02-26T03:30:03;98587.77;;;7.84;86.59
58662;BME280;44432;49.786;22.760;2024-02-26T03:32:34;98590.23;;;7.81;86.96
58662;BME280;44432;49.786;22.760;2024-02-26T03:35:05;98583.73;;;7.80;87.33
58662;BME280;44432;49.786;22.760;2024-02-26T03:37:36;98588.71;;;7.79;87.36
58662;BME280;44432;49.786;22.760;2024-02-26T03:40:09;98592.54;;;7.75;87.06
58662;BME280;44432;49.786;22.760;2024-02-26T03:42:42;98595.05;;;7.69;87.10
58662;BME280;44432;49.786;22.760;2024-02-26T03:45:13;98599.64;;;7.62;87.51
58662;BME280;44432;49.786;22.760;2024-02-26T03:47:44;98602.54;;;7.54;87.52
58662;BME280;44432;49.786;22.760;2024-02-26T03:50:15;98599.30;;;7.50;87.53
58662;BME280;44432;49.786;22.760;2024-02-26T03:52:46;98597.95;;;7.45;87.57
58662;BME280;44432;49.786;22.760;2024-02-26T03:55:17;98600.50;;;7.41;87.84
58662;BME280;44432;49.786;22.760;2024-02-26T03:57:54;98598.14;;;7.36;87.62
58662;BME280;44432;49.786;22.760;2024-02-26T04:00:24;98595.61;;;7.30;87.56
58662;BME280;44432;49.786;22.760;2024-02-26T04:02:55;98603.55;;;7.25;87.36
58662;BME280;44432;49.786;22.760;2024-02-26T04:05:26;98600.85;;;7.20;87.96
58662;BME280;44432;49.786;22.760;2024-02-26T04:07:57;98603.86;;;7.13;87.74
58662;BME280;44432;49.786;22.760;2024-02-26T04:10:27;98601.54;;;7.06;88.19
58662;BME280;44432;49.786;22.760;2024-02-26T04:12:58;98602.45;;;7.01;88.32
58662;BME280;44432;49.786;22.760;2024-02-26T04:15:29;98600.39;;;6.96;88.02
58662;BME280;44432;49.786;22.760;2024-02-26T04:18:00;98599.79;;;6.94;88.25
58662;BME280;44432;49.786;22.760;2024-02-26T04:20:32;98602.02;;;6.94;88.66
58662;BME280;44432;49.786;22.760;2024-02-26T04:23:03;98601.73;;;6.95;88.66
58662;BME280;44432;49.786;22.760;2024-02-26T04:25:34;98600.95;;;6.96;88.83
58662;BME280;44432;49.786;22.760;2024-02-26T04:28:06;98600.27;;;6.96;88.89
58662;BME280;44432;49.786;22.760;2024-02-26T04:30:36;98599.99;;;6.95;89.05
58662;BME280;44432;49.786;22.760;2024-02-26T04:33:07;98597.97;;;6.95;88.69
58662;BME280;44432;49.786;22.760;2024-02-26T04:35:38;98598.73;;;6.94;88.74
58662;BME280;44432;49.786;22.760;2024-02-26T04:38:09;98599.07;;;6.94;89.12
58662;BME280;44432;49.786;22.760;2024-02-26T04:40:39;98598.18;;;6.93;89.01
58662;BME280;44432;49.786;22.760;2024-02-26T04:43:10;98604.16;;;6.92;88.78
58662;BME280;44432;49.786;22.760;2024-02-26T04:45:41;98603.06;;;6.91;88.90
58662;BME280;44432;49.786;22.760;2024-02-26T04:48:12;98607.23;;;6.89;89.03
58662;BME280;44432;49.786;22.760;2024-02-26T04:50:43;98606.23;;;6.86;88.89
58662;BME280;44432;49.786;22.760;2024-02-26T04:53:14;98606.52;;;6.83;89.06
58662;BME280;44432;49.786;22.760;2024-02-26T04:55:45;98610.67;;;6.83;89.19
58662;BME280;44432;49.786;22.760;2024-02-26T04:58:16;98613.86;;;6.83;89.55
58662;BME280;44432;49.786;22.760;2024-02-26T05:00:47;98615.72;;;6.83;89.32
58662;BME280;44432;49.786;22.760;2024-02-26T05:03:17;98617.45;;;6.87;89.93
58662;BME280;44432;49.786;22.760;2024-02-26T05:05:48;98611.35;;;6.92;89.94
58662;BME280;44432;49.786;22.760;2024-02-26T05:08:19;98614.89;;;6.95;90.14
58662;BME280;44432;49.786;22.760;2024-02-26T05:10:50;98617.18;;;6.99;90.23
58662;BME280;44432;49.786;22.760;2024-02-26T05:13:21;98617.14;;;7.02;90.20
58662;BME280;44432;49.786;22.760;2024-02-26T05:15:52;98609.23;;;7.02;89.70
58662;BME280;44432;49.786;22.760;2024-02-26T05:18:23;98613.05;;;7.05;90.06
58662;BME280;44432;49.786;22.760;2024-02-26T05:20:54;98611.84;;;7.07;90.24
58662;BME280;44432;49.786;22.760;2024-02-26T05:23:25;98613.84;;;7.10;90.28
58662;BME280;44432;49.786;22.760;2024-02-26T05:25:56;98616.90;;;7.14;90.17
58662;BME280;44432;49.786;22.760;2024-02-26T05:28:27;98619.41;;;7.13;90.25
58662;BME280;44432;49.786;22.760;2024-02-26T05:30:58;98613.67;;;7.09;89.68
58662;BME280;44432;49.786;22.760;2024-02-26T05:33:28;98616.19;;;7.07;89.75
58662;BME280;44432;49.786;22.760;2024-02-26T05:35:59;98615.27;;;7.06;89.75
58662;BME280;44432;49.786;22.760;2024-02-26T05:38:33;98616.15;;;7.08;89.99
58662;BME280;44432;49.786;22.760;2024-02-26T05:41:04;98614.70;;;7.09;90.16
58662;BME280;44432;49.786;22.760;2024-02-26T05:43:35;98618.48;;;7.12;90.11
58662;BME280;44432;49.786;22.760;2024-02-26T05:46:06;98619.61;;;7.14;90.14
58662;BME280;44432;49.786;22.760;2024-02-26T05:48:37;98623.55;;;7.17;89.89
58662;BME280;44432;49.786;22.760;2024-02-26T05:51:08;98624.96;;;7.20;89.65
58662;BME280;44432;49.786;22.760;2024-02-26T05:53:40;98626.70;;;7.20;89.55
58662;BME280;44432;49.786;22.760;2024-02-26T05:56:11;98631.73;;;7.23;90.05
58662;BME280;44432;49.786;22.760;2024-02-26T05:58:41;98633.42;;;7.26;89.88
58662;BME280;44432;49.786;22.760;2024-02-26T06:01:12;98632.05;;;7.30;89.57
58662;BME280;44432;49.786;22.760;2024-02-26T06:03:43;98635.40;;;7.31;89.63
58662;BME280;44432;49.786;22.760;2024-02-26T06:06:14;98639.52;;;7.31;89.69
58662;BME280;44432;49.786;22.760;2024-02-26T06:08:50;98639.42;;;7.35;89.82
58662;BME280;44432;49.786;22.760;2024-02-26T06:11:22;98635.86;;;7.37;89.48
58662;BME280;44432;49.786;22.760;2024-02-26T06:13:53;98637.84;;;7.40;89.45
58662;BME280;44432;49.786;22.760;2024-02-26T06:16:24;98640.77;;;7.42;89.53
58662;BME280;44432;49.786;22.760;2024-02-26T06:18:55;98640.24;;;7.45;89.33
58662;BME280;44432;49.786;22.760;2024-02-26T06:21:26;98643.05;;;7.49;89.39
58662;BME280;44432;49.786;22.760;2024-02-26T06:23:57;98652.74;;;7.52;89.31
58662;BME280;44432;49.786;22.760;2024-02-26T06:26:28;98657.66;;;7.53;88.87
58662;BME280;44432;49.786;22.760;2024-02-26T06:28:59;98662.91;;;7.58;88.86
58662;BME280;44432;49.786;22.760;2024-02-26T06:31:30;98659.23;;;7.59;88.71
58662;BME280;44432;49.786;22.760;2024-02-26T06:34:01;98657.29;;;7.58;88.21
58662;BME280;44432;49.786;22.760;2024-02-26T06:36:33;98654.50;;;7.58;88.35
58662;BME280;44432;49.786;22.760;2024-02-26T06:39:04;98655.34;;;7.58;88.28
58662;BME280;44432;49.786;22.760;2024-02-26T06:41:36;98658.83;;;7.58;88.40
58662;BME280;44432;49.786;22.760;2024-02-26T06:44:08;98661.56;;;7.60;88.37
58662;BME280;44432;49.786;22.760;2024-02-26T06:46:39;98665.77;;;7.63;88.49
58662;BME280;44432;49.786;22.760;2024-02-26T06:49:10;98665.39;;;7.65;88.59
58662;BME280;44432;49.786;22.760;2024-02-26T06:51:41;98667.97;;;7.67;88.27
58662;BME280;44432;49.786;22.760;2024-02-26T06:54:12;98664.48;;;7.68;88.15
58662;BME280;44432;49.786;22.760;2024-02-26T06:56:42;98663.46;;;7.70;88.04
58662;BME280;44432;49.786;22.760;2024-02-26T06:59:13;98666.25;;;7.70;88.06
58662;BME280;44432;49.786;22.760;2024-02-26T07:01:44;98665.48;;;7.71;88.13
58662;BME280;44432;49.786;22.760;2024-02-26T07:04:15;98667.20;;;7.73;88.16
58662;BME280;44432;49.786;22.760;2024-02-26T07:06:46;98667.94;;;7.75;88.09
58662;BME280;44432;49.786;22.760;2024-02-26T07:09:17;98667.96;;;7.74;87.90
58662;BME280;44432;49.786;22.760;2024-02-26T07:11:48;98669.04;;;7.72;87.35
58662;BME280;44432;49.786;22.760;2024-02-26T07:14:19;98670.86;;;7.71;87.62
58662;BME280;44432;49.786;22.760;2024-02-26T07:16:50;98672.77;;;7.70;87.53
58662;BME280;44432;49.786;22.760;2024-02-26T07:19:20;98674.69;;;7.75;87.94
58662;BME280;44432;49.786;22.760;2024-02-26T07:21:51;98680.52;;;7.78;88.07
58662;BME280;44432;49.786;22.760;2024-02-26T07:24:22;98671.48;;;7.77;87.62
58662;BME280;44432;49.786;22.760;2024-02-26T07:26:53;98670.72;;;7.74;87.53
58662;BME280;44432;49.786;22.760;2024-02-26T07:29:27;98670.02;;;7.79;87.86
58662;BME280;44432;49.786;22.760;2024-02-26T07:31:58;98671.40;;;7.85;88.23
58662;BME280;44432;49.786;22.760;2024-02-26T07:34:33;98674.48;;;7.93;88.28
58662;BME280;44432;49.786;22.760;2024-02-26T07:37:12;98670.60;;;8.00;88.22
58662;BME280;44432;49.786;22.760;2024-02-26T07:39:43;98675.16;;;8.08;88.09
58662;BME280;44432;49.786;22.760;2024-02-26T07:42:14;98671.83;;;8.12;87.41
58662;BME280;44432;49.786;22.760;2024-02-26T07:44:45;98671.81;;;8.14;87.13
58662;BME280;44432;49.786;22.760;2024-02-26T07:47:15;98673.58;;;8.16;87.34
58662;BME280;44432;49.786;22.760;2024-02-26T07:49:46;98675.98;;;8.22;87.25
58662;BME280;44432;49.786;22.760;2024-02-26T07:52:17;98679.83;;;8.28;87.13
58662;BME280;44432;49.786;22.760;2024-02-26T07:54:48;98683.45;;;8.36;87.03
58662;BME280;44432;49.786;22.760;2024-02-26T07:57:19;98681.09;;;8.44;86.78
58662;BME280;44432;49.786;22.760;2024-02-26T07:59:50;98681.23;;;8.52;86.74
58662;BME280;44432;49.786;22.760;2024-02-26T08:02:22;98677.29;;;8.61;86.93
58662;BME280;44432;49.786;22.760;2024-02-26T08:04:52;98675.14;;;8.72;86.71
58662;BME280;44432;49.786;22.760;2024-02-26T08:07:23;98675.66;;;8.81;86.77
58662;BME280;44432;49.786;22.760;2024-02-26T08:09:54;98674.98;;;8.90;86.47
58662;BME280;44432;49.786;22.760;2024-02-26T08:12:25;98678.83;;;8.99;86.12
58662;BME280;44432;49.786;22.760;2024-02-26T08:14:55;98678.09;;;9.05;85.96
58662;BME280;44432;49.786;22.760;2024-02-26T08:17:27;98675.76;;;9.12;85.90
58662;BME280;44432;49.786;22.760;2024-02-26T08:19:58;98672.52;;;9.20;85.78
58662;BME280;44432;49.786;22.760;2024-02-26T08:22:29;98673.13;;;9.28;85.72
58662;BME280;44432;49.786;22.760;2024-02-26T08:25:00;98675.89;;;9.36;85.48
58662;BME280;44432;49.786;22.760;2024-02-26T08:27:34;98678.95;;;9.44;85.16
58662;BME280;44432;49.786;22.760;2024-02-26T08:30:07;98681.59;;;9.52;84.70
58662;BME280;44432;49.786;22.760;2024-02-26T08:32:38;98677.24;;;9.53;84.13
58662;BME280;44432;49.786;22.760;2024-02-26T08:35:10;98674.77;;;9.53;83.95
58662;BME280;44432;49.786;22.760;2024-02-26T08:37:43;98678.31;;;9.59;84.07
58662;BME280;44432;49.786;22.760;2024-02-26T08:40:15;98678.20;;;9.66;84.15
58662;BME280;44432;49.786;22.760;2024-02-26T08:42:46;98680.73;;;9.73;84.17
58662;BME280;44432;49.786;22.760;2024-02-26T08:45:17;98680.38;;;9.79;83.81
58662;BME280;44432;49.786;22.760;2024-02-26T08:47:48;98685.11;;;9.87;83.83
58662;BME280;44432;49.786;22.760;2024-02-26T08:50:19;98681.96;;;9.92;83.59
58662;BME280;44432;49.786;22.760;2024-02-26T08:52:50;98684.50;;;9.96;83.23
58662;BME280;44432;49.786;22.760;2024-02-26T08:55:23;98685.70;;;9.99;83.03
58662;BME280;44432;49.786;22.760;2024-02-26T08:57:54;98682.25;;;10.00;82.77
58662;BME280;44432;49.786;22.760;2024-02-26T09:00:24;98683.80;;;10.03;82.48
58662;BME280;44432;49.786;22.760;2024-02-26T09:02:55;98685.98;;;10.05;82.39
58662;BME280;44432;49.786;22.760;2024-02-26T09:05:26;98683.30;;;10.10;82.31
58662;BME280;44432;49.786;22.760;2024-02-26T09:07:57;98681.02;;;10.13;82.51
58662;BME280;44432;49.786;22.760;2024-02-26T09:10:28;98681.08;;;10.21;82.35
58662;BME280;44432;49.786;22.760;2024-02-26T09:12:59;98678.13;;;10.27;82.32
58662;BME280;44432;49.786;22.760;2024-02-26T09:15:29;98682.19;;;10.37;82.78
58662;BME280;44432;49.786;22.760;2024-02-26T09:18:00;98679.23;;;10.51;82.83
58662;BME280;44432;49.786;22.760;2024-02-26T09:20:32;98678.83;;;10.64;82.70
58662;BME280;44432;49.786;22.760;2024-02-26T09:23:03;98676.50;;;10.75;82.55
58662;BME280;44432;49.786;22.760;2024-02-26T09:25:34;98678.71;;;10.86;82.10
58662;BME280;44432;49.786;22.760;2024-02-26T09:28:05;98676.06;;;10.97;82.00
58662;BME280;44432;49.786;22.760;2024-02-26T09:30:36;98668.48;;;11.05;81.63
58662;BME280;44432;49.786;22.760;2024-02-26T09:33:08;98668.52;;;11.14;81.50
58662;BME280;44432;49.786;22.760;2024-02-26T09:35:39;98667.87;;;11.25;81.46
58662;BME280;44432;49.786;22.760;2024-02-26T09:38:10;98667.49;;;11.34;81.05
58662;BME280;44432;49.786;22.760;2024-02-26T09:40:42;98666.59;;;11.43;80.78
58662;BME280;44432;49.786;22.760;2024-02-26T09:43:15;98666.61;;;11.52;80.39
58662;BME280;44432;49.786;22.760;2024-02-26T09:45:48;98663.96;;;11.60;80.22
58662;BME280;44432;49.786;22.760;2024-02-26T09:48:21;98666.76;;;11.67;79.80
58662;BME280;44432;49.786;22.760;2024-02-26T09:50:53;98671.68;;;11.75;79.49
58662;BME280;44432;49.786;22.760;2024-02-26T09:53:24;98668.14;;;11.85;79.39
58662;BME280;44432;49.786;22.760;2024-02-26T09:55:55;98674.11;;;11.93;78.77
58662;BME280;44432;49.786;22.760;2024-02-26T09:58:26;98670.17;;;11.94;78.28
58662;BME280;44432;49.786;22.760;2024-02-26T10:01:00;98674.17;;;12.01;78.46
58662;BME280;44432;49.786;22.760;2024-02-26T10:03:41;98669.10;;;12.14;78.66
58662;BME280;44432;49.786;22.760;2024-02-26T10:06:14;98673.20;;;12.29;78.60
58662;BME280;44432;49.786;22.760;2024-02-26T10:08:45;98675.62;;;12.41;78.07
58662;BME280;44432;49.786;22.760;2024-02-26T10:11:16;98674.17;;;12.55;77.90
58662;BME280;44432;49.786;22.760;2024-02-26T10:13:47;98666.48;;;12.66;77.78
58662;BME280;44432;49.786;22.760;2024-02-26T10:16:19;98661.88;;;12.80;77.46
58662;BME280;44432;49.786;22.760;2024-02-26T10:18:51;98654.48;;;12.95;77.29
58662;BME280;44432;49.786;22.760;2024-02-26T10:21:22;98653.52;;;13.09;76.85
58662;BME280;44432;49.786;22.760;2024-02-26T10:23:53;98653.44;;;13.24;76.61
58662;BME280;44432;49.786;22.760;2024-02-26T10:26:24;98653.88;;;13.38;76.01
58662;BME280;44432;49.786;22.760;2024-02-26T10:29:00;98658.06;;;13.50;75.22
58662;BME280;44432;49.786;22.760;2024-02-26T10:31:32;98653.08;;;13.60;74.58
58662;BME280;44432;49.786;22.760;2024-02-26T10:34:03;98656.48;;;13.69;74.29
58662;BME280;44432;49.786;22.760;2024-02-26T10:36:36;98653.06;;;13.76;74.02
58662;BME280;44432;49.786;22.760;2024-02-26T10:39:11;98654.38;;;13.90;73.78
58662;BME280;44432;49.786;22.760;2024-02-26T10:41:44;98653.89;;;13.98;73.24
58662;BME280;44432;49.786;22.760;2024-02-26T10:44:15;98649.88;;;14.06;73.19
58662;BME280;44432;49.786;22.760;2024-02-26T10:46:48;98652.30;;;14.16;73.07
58662;BME280;44432;49.786;22.760;2024-02-26T10:49:19;98649.99;;;14.23;72.76
58662;BME280;44432;49.786;22.760;2024-02-26T10:51:55;98646.02;;;14.31;72.79
58662;BME280;44432;49.786;22.760;2024-02-26T10:54:27;98637.08;;;14.38;72.45
58662;BME280;44432;49.786;22.760;2024-02-26T10:57:00;98638.27;;;14.45;72.35
58662;BME280;44432;49.786;22.760;2024-02-26T10:59:34;98637.86;;;14.48;71.79
58662;BME280;44432;49.786;22.760;2024-02-26T11:02:05;98632.09;;;14.49;71.68
58662;BME280;44432;49.786;22.760;2024-02-26T11:04:37;98637.68;;;14.51;71.38
58662;BME280;44432;49.786;22.760;2024-02-26T11:07:09;98636.16;;;14.53;71.15
58662;BME280;44432;49.786;22.760;2024-02-26T11:09:41;98635.15;;;14.54;71.26
58662;BME280;44432;49.786;22.760;2024-02-26T11:12:14;98630.72;;;14.61;71.19
58662;BME280;44432;49.786;22.760;2024-02-26T11:14:47;98632.74;;;14.68;71.18
58662;BME280;44432;49.786;22.760;2024-02-26T11:17:22;98629.00;;;14.80;71.08
58662;BME280;44432;49.786;22.760;2024-02-26T11:19:57;98623.66;;;14.92;71.14
58662;BME280;44432;49.786;22.760;2024-02-26T11:22:26;98622.98;;;15.05;70.79
58662;BME280;44432;49.786;22.760;2024-02-26T11:24:58;98618.83;;;15.11;69.86
58662;BME280;44432;49.786;22.760;2024-02-26T11:27:32;98622.87;;;15.12;69.87
58662;BME280;44432;49.786;22.760;2024-02-26T11:30:11;98621.53;;;15.20;69.98
58662;BME280;44432;49.786;22.760;2024-02-26T11:32:45;98622.18;;;15.31;69.96
58662;BME280;44432;49.786;22.760;2024-02-26T11:35:17;98624.29;;;15.42;69.71
58662;BME280;44432;49.786;22.760;2024-02-26T11:37:55;98621.32;;;15.53;69.24
58662;BME280;44432;49.786;22.760;2024-02-26T11:40:26;98618.85;;;15.62;68.84
58662;BME280;44432;49.786;22.760;2024-02-26T11:42:57;98617.77;;;15.73;68.80
58662;BME280;44432;49.786;22.760;2024-02-26T11:45:51;98622.11;;;15.85;68.30
58662;BME280;44432;49.786;22.760;2024-02-26T11:48:30;98621.91;;;15.92;67.90
58662;BME280;44432;49.786;22.760;2024-02-26T11:51:01;98614.85;;;15.98;67.63
58662;BME280;44432;49.786;22.760;2024-02-26T11:53:33;98615.86;;;16.04;67.30
58662;BME280;44432;49.786;22.760;2024-02-26T11:56:34;98614.91;;;16.11;67.16
58662;BME280;44432;49.786;22.760;2024-02-26T11:59:10;98616.86;;;16.23;67.23
58662;BME280;44432;49.786;22.760;2024-02-26T12:01:44;98613.29;;;16.35;66.91
58662;BME280;44432;49.786;22.760;2024-02-26T12:04:18;98607.86;;;16.44;65.88
58662;BME280;44432;49.786;22.760;2024-02-26T12:06:52;98607.54;;;16.46;65.16
58662;BME280;44432;49.786;22.760;2024-02-26T12:09:34;98602.00;;;16.51;65.15
58662;BME280;44432;49.786;22.760;2024-02-26T12:12:07;98600.55;;;16.57;64.67
58662;BME280;44432;49.786;22.760;2024-02-26T12:14:41;98598.48;;;16.60;64.16
58662;BME280;44432;49.786;22.760;2024-02-26T12:17:22;98599.00;;;16.65;63.92
58662;BME280;44432;49.786;22.760;2024-02-26T12:19:52;98599.53;;;16.73;64.15
58662;BME280;44432;49.786;22.760;2024-02-26T12:22:23;98598.55;;;16.82;64.02
58662;BME280;44432;49.786;22.760;2024-02-26T12:25:01;98590.44;;;16.93;64.26
58662;BME280;44432;49.786;22.760;2024-02-26T12:27:32;98591.90;;;17.05;64.11
58662;BME280;44432;49.786;22.760;2024-02-26T12:30:03;98598.17;;;17.13;63.98
58662;BME280;44432;49.786;22.760;2024-02-26T12:32:36;98596.40;;;17.15;63.86
58662;BME280;44432;49.786;22.760;2024-02-26T12:35:08;98598.16;;;17.14;63.49
58662;BME280;44432;49.786;22.760;2024-02-26T12:37:39;98598.23;;;17.10;63.40
58662;BME280;44432;49.786;22.760;2024-02-26T12:40:11;98598.08;;;17.05;63.34
58662;BME280;44432;49.786;22.760;2024-02-26T12:42:42;98601.46;;;16.96;63.24
58662;BME280;44432;49.786;22.760;2024-02-26T12:45:14;98601.31;;;16.91;63.37
58662;BME280;44432;49.786;22.760;2024-02-26T12:47:46;98608.46;;;16.86;63.01
58662;BME280;44432;49.786;22.760;2024-02-26T12:50:17;98610.77;;;16.82;62.98
58662;BME280;44432;49.786;22.760;2024-02-26T12:52:50;98607.09;;;16.83;63.04
58662;BME280;44432;49.786;22.760;2024-02-26T12:55:22;98610.98;;;16.85;62.72
58662;BME280;44432;49.786;22.760;2024-02-26T12:57:53;98611.02;;;16.86;62.62
58662;BME280;44432;49.786;22.760;2024-02-26T13:00:26;98611.88;;;16.89;62.47
58662;BME280;44432;49.786;22.760;2024-02-26T13:02:56;98617.26;;;16.93;62.32
58662;BME280;44432;49.786;22.760;2024-02-26T13:05:27;98611.27;;;16.96;62.44
58662;BME280;44432;49.786;22.760;2024-02-26T13:07:58;98611.73;;;17.04;62.06
58662;BME280;44432;49.786;22.760;2024-02-26T13:10:29;98610.23;;;17.12;61.75
58662;BME280;44432;49.786;22.760;2024-02-26T13:13:03;98611.91;;;17.18;61.12
58662;BME280;44432;49.786;22.760;2024-02-26T13:15:34;98613.72;;;17.21;61.05
58662;BME280;44432;49.786;22.760;2024-02-26T13:18:13;98607.80;;;17.24;61.15
58662;BME280;44432;49.786;22.760;2024-02-26T13:20:44;98605.48;;;17.30;60.87